Time;durP1;ratioP1;P1;durP2;ratioP2;P2;SDS_P1;SDS_P2;PMS_P1;PMS_P2;Temp;Humidity;BMP_temperature;BMP_pressure;BME280_temperature;BME280_humidity;BME280_pressure;Samples;Min_cycle;Max_cycle;Signal;HPM_P1;HPM_P2
2023/03/13 00:02:00;;;;;;;;;;;;;;;23.97;41.17;97302.42;594264;238;67146;-62
2023/03/13 00:04:27;;;;;;;;;;;;;;;23.97;41.21;97315.84;594283;239;65143;-62
2023/03/13 00:06:54;;;;;;;;;;;;;;;23.96;41.66;97311.56;594228;239;67226;-62
2023/03/13 00:09:22;;;;;;;;;;;;;;;23.94;43.29;97309.16;594271;239;64979;-62
2023/03/13 00:11:49;;;;;;;;;;;;;;;23.94;42.08;97311.84;594280;239;62898;-62
2023/03/13 00:14:17;;;;;;;;;;;;;;;23.93;41.48;97310.25;594326;239;67191;-62
2023/03/13 00:16:44;;;;;;;;;;;;;;;23.91;41.57;97305.15;594279;239;64960;-62
2023/03/13 00:19:12;;;;;;;;;;;;;;;23.93;42.53;97312.94;594238;239;65047;-62
2023/03/13 00:21:44;;;;;;;;;;;;;;;23.91;45.10;97307.04;594274;239;67105;-62
2023/03/13 00:24:10;;;;;;;;;;;;;;;23.90;42.00;97313.50;594136;238;64797;-62
2023/03/13 00:26:37;;;;;;;;;;;;;;;23.91;40.77;97309.72;594303;239;62869;-62
2023/03/13 00:29:05;;;;;;;;;;;;;;;23.91;40.96;97307.83;594261;239;67736;-62
2023/03/13 00:31:32;;;;;;;;;;;;;;;;;;594243;239;65551;-62
2023/03/13 00:34:01;;;;;;;;;;;;;;;23.90;39.45;97316.19;594295;239;63006;-62
2023/03/13 00:36:27;;;;;;;;;;;;;;;;;;590995;239;64642;-62
2023/03/13 00:38:53;;;;;;;;;;;;;;;;;;588745;241;67240;-62
2023/03/13 00:41:22;;;;;;;;;;;;;;;23.89;41.04;97312.67;588697;241;63919;-62
2023/03/13 00:43:50;;;;;;;;;;;;;;;23.88;40.44;97304.92;588624;241;64877;-62
2023/03/13 00:46:19;;;;;;;;;;;;;;;23.88;40.11;97307.61;588631;241;64979;-62
2023/03/13 00:48:47;;;;;;;;;;;;;;;23.87;41.70;97304.13;588652;241;65093;-62
2023/03/13 00:51:15;;;;;;;;;;;;;;;23.87;41.75;97304.13;588677;241;66965;-62
2023/03/13 00:53:43;;;;;;;;;;;;;;;23.87;41.24;97303.30;588654;241;67077;-62
2023/03/13 00:56:12;;;;;;;;;;;;;;;23.86;40.87;97297.14;588598;241;63072;-62
2023/03/13 00:58:40;;;;;;;;;;;;;;;23.86;40.83;97294.45;588647;241;65114;-62
2023/03/13 01:01:12;;;;;;;;;;;;;;;23.85;40.99;97297.44;588602;241;67086;-62
2023/03/13 01:03:41;;;;;;;;;;;;;;;23.85;39.88;97300.12;588639;241;65043;-62
2023/03/13 01:06:10;;;;;;;;;;;;;;;23.84;39.66;97296.61;588700;241;67275;-62
2023/03/13 01:08:37;;;;;;;;;;;;;;;23.84;41.00;97295.81;588636;241;66986;-62
2023/03/13 01:11:07;;;;;;;;;;;;;;;23.83;41.64;97299.59;588651;241;65888;-62
2023/03/13 01:13:35;;;;;;;;;;;;;;;23.81;41.40;97296.39;588462;241;67305;-62
2023/03/13 01:16:04;;;;;;;;;;;;;;;23.82;41.43;97304.17;588633;241;67092;-62
2023/03/13 01:18:32;;;;;;;;;;;;;;;23.81;41.88;97301.75;588683;241;63529;-62
2023/03/13 01:20:59;;;;;;;;;;;;;;;23.81;40.67;97297.18;588615;241;65005;-62
2023/03/13 01:23:27;;;;;;;;;;;;;;;23.80;42.50;97298.28;588636;241;64805;-62
2023/03/13 01:25:55;;;;;;;;;;;;;;;23.80;42.51;97308.22;588590;241;62784;-62
2023/03/13 01:28:23;;;;;;;;;;;;;;;23.78;41.32;97313.85;588639;241;64920;-62
2023/03/13 01:30:51;;;;;;;;;;;;;;;23.78;41.50;97308.48;588674;241;67364;-62
2023/03/13 01:33:18;;;;;;;;;;;;;;;23.78;40.71;97315.73;588628;241;62841;-66
2023/03/13 01:35:47;;;;;;;;;;;;;;;23.77;41.70;97319.52;590136;239;67908;-67
2023/03/13 01:38:15;;;;;;;;;;;;;;;23.77;41.70;97314.15;594304;239;64340;-67
2023/03/13 01:40:44;;;;;;;;;;;;;;;23.76;42.29;97317.89;594265;239;63517;-67
2023/03/13 01:43:13;;;;;;;;;;;;;;;23.74;41.47;97323.56;594143;239;66923;-67
2023/03/13 01:45:58;;;;;;;;;;;;;;;23.74;40.74;97328.93;594130;239;67080;-67
2023/03/13 01:48:35;;;;;;;;;;;;;;;23.74;40.03;97323.56;594330;237;42626;-66
2023/03/13 01:51:04;;;;;;;;;;;;;;;23.74;41.44;97325.45;594259;239;64126;-66
2023/03/13 01:53:33;;;;;;;;;;;;;;;23.73;45.80;97331.88;594272;239;66867;-61
2023/03/13 01:56:02;;;;;;;;;;;;;;;23.69;45.99;97329.73;594266;239;65725;-61
2023/03/13 01:58:30;;;;;;;;;;;;;;;23.70;42.12;97328.64;594293;239;67456;-61
2023/03/13 02:00:58;;;;;;;;;;;;;;;23.70;42.26;97335.89;594285;239;67102;-60
2023/03/13 02:03:28;;;;;;;;;;;;;;;23.69;41.16;97331.62;594279;239;63840;-61
2023/03/13 02:05:57;;;;;;;;;;;;;;;23.68;43.52;97338.05;594270;239;67671;-61
2023/03/13 02:08:25;;;;;;;;;;;;;;;23.67;42.92;97337.25;594264;239;67079;-65
2023/03/13 02:11:02;;;;;;;;;;;;;;;23.67;41.29;97339.94;594126;239;65864;-66
2023/03/13 02:13:29;;;;;;;;;;;;;;;23.67;43.16;97331.89;592667;239;67498;-65
2023/03/13 02:15:57;;;;;;;;;;;;;;;23.66;45.46;97341.03;594224;239;67565;-66
2023/03/13 02:18:25;;;;;;;;;;;;;;;23.66;43.74;97340.23;594263;239;65848;-61
2023/03/13 02:20:54;;;;;;;;;;;;;;;23.66;41.27;97340.23;594262;239;65971;-61
2023/03/13 02:23:23;;;;;;;;;;;;;;;23.65;43.18;97347.48;594236;239;65557;-66
2023/03/13 02:25:52;;;;;;;;;;;;;;;23.64;43.90;97348.55;594302;238;65161;-66
2023/03/13 02:28:32;;;;;;;;;;;;;;;23.63;41.87;97349.64;594255;239;44098;-66
2023/03/13 02:30:58;;;;;;;;;;;;;;;23.63;43.33;97341.59;594205;239;65068;-66
2023/03/13 02:33:30;;;;;;;;;;;;;;;23.62;43.74;97349.91;587127;239;65225;-66
2023/03/13 02:35:59;;;;;;;;;;;;;;;23.60;46.36;97355.57;592290;239;65764;-66
2023/03/13 02:38:28;;;;;;;;;;;;;;;23.60;42.67;97354.75;588646;241;65582;-66
2023/03/13 02:40:57;;;;;;;;;;;;;;;23.59;43.15;97355.84;588642;241;63043;-66
2023/03/13 02:43:29;;;;;;;;;;;;;;;23.58;41.25;97360.41;588619;241;67154;-66
2023/03/13 02:46:08;;;;;;;;;;;;;;;23.56;42.59;97362.56;588481;241;65605;-66
2023/03/13 02:48:39;;;;;;;;;;;;;;;23.58;44.54;97371.14;588629;241;47081;-66
2023/03/13 02:51:11;;;;;;;;;;;;;;;23.57;45.89;97377.59;588638;241;64852;-66
2023/03/13 02:53:39;;;;;;;;;;;;;;;23.56;44.98;97383.22;588459;241;66784;-66
2023/03/13 02:56:07;;;;;;;;;;;;;;;23.54;41.48;97380.02;588666;241;64962;-66
2023/03/13 02:58:42;;;;;;;;;;;;;;;23.55;44.09;97382.43;588631;238;65102;-66
2023/03/13 03:01:10;;;;;;;;;;;;;;;23.54;45.83;97380.02;588615;241;67382;-66
2023/03/13 03:03:39;;;;;;;;;;;;;;;23.51;43.84;97381.37;588613;241;65055;-66
2023/03/13 03:06:06;;;;;;;;;;;;;;;23.53;45.05;97389.16;588613;241;65036;-66
2023/03/13 03:08:34;;;;;;;;;;;;;;;23.52;43.73;97385.67;588634;241;67109;-66
2023/03/13 03:11:04;;;;;;;;;;;;;;;23.51;42.25;97386.73;588644;241;62448;-61
2023/03/13 03:13:32;;;;;;;;;;;;;;;23.51;45.46;97393.98;588604;238;67876;-61
2023/03/13 03:16:01;;;;;;;;;;;;;;;23.50;46.82;97401.23;588630;241;66982;-61
2023/03/13 03:18:29;;;;;;;;;;;;;;;23.49;45.23;97407.69;588508;241;64981;-61
2023/03/13 03:20:56;;;;;;;;;;;;;;;23.49;46.45;97405.01;588603;241;64553;-61
2023/03/13 03:23:24;;;;;;;;;;;;;;;23.47;44.11;97407.95;588688;241;67339;-61
2023/03/13 03:25:51;;;;;;;;;;;;;;;23.46;45.43;97414.41;588568;241;65005;-61
2023/03/13 03:28:19;;;;;;;;;;;;;;;23.45;44.37;97418.16;588632;241;67352;-61
2023/03/13 03:30:46;;;;;;;;;;;;;;;23.46;47.41;97424.31;588602;241;66975;-61
2023/03/13 03:33:14;;;;;;;;;;;;;;;23.45;43.75;97428.09;588604;241;62560;-61
2023/03/13 03:35:42;;;;;;;;;;;;;;;23.45;44.46;97433.45;589958;239;65160;-66
2023/03/13 03:38:10;;;;;;;;;;;;;;;23.45;45.16;97422.72;594262;239;64631;-66
2023/03/13 03:40:37;;;;;;;;;;;;;;;23.43;46.15;97419.50;594252;239;62982;-67
2023/03/13 03:43:05;;;;;;;;;;;;;;;23.43;43.56;97430.23;594259;239;67389;-66
2023/03/13 03:45:33;;;;;;;;;;;;;;;23.42;44.98;97425.96;594237;239;67616;-66
2023/03/13 03:48:01;;;;;;;;;;;;;;;23.41;46.55;97435.09;594293;239;62537;-61
2023/03/13 03:50:30;;;;;;;;;;;;;;;23.41;47.14;97430.53;594201;239;65946;-61
2023/03/13 03:52:59;;;;;;;;;;;;;;;23.40;46.17;97433.47;594317;239;47741;-61
2023/03/13 03:55:27;;;;;;;;;;;;;;;23.40;44.41;97445.00;594247;239;63713;-66
2023/03/13 03:57:55;;;;;;;;;;;;;;;23.40;43.31;97454.93;594210;239;67804;-67
2023/03/13 04:00:24;;;;;;;;;;;;;;;23.40;45.42;97465.66;593425;239;45531;-66
2023/03/13 04:02:52;;;;;;;;;;;;;;;23.39;46.23;97475.59;594301;239;63039;-66
2023/03/13 04:05:19;;;;;;;;;;;;;;;23.38;44.52;97475.85;594244;239;67279;-66
2023/03/13 04:07:48;;;;;;;;;;;;;;;23.38;47.42;97486.58;587090;239;65825;-66
2023/03/13 04:10:15;;;;;;;;;;;;;;;23.36;46.94;97476.14;594224;239;64914;-66
2023/03/13 04:12:44;;;;;;;;;;;;;;;23.35;44.19;97484.45;594199;239;68001;-66
2023/03/13 04:15:12;;;;;;;;;;;;;;;23.36;47.98;97486.08;587070;239;66695;-66
2023/03/13 04:17:40;;;;;;;;;;;;;;;23.34;45.97;97478.29;594233;239;65860;-66
2023/03/13 04:20:10;;;;;;;;;;;;;;;23.34;47.89;97485.54;594218;239;68048;-66
2023/03/13 04:22:37;;;;;;;;;;;;;;;23.33;46.72;97486.63;594245;239;65117;-66
2023/03/13 04:25:05;;;;;;;;;;;;;;;23.32;45.93;97487.69;594204;239;62931;-66
2023/03/13 04:27:33;;;;;;;;;;;;;;;23.32;47.10;97495.73;594234;239;67274;-66
2023/03/13 04:30:03;;;;;;;;;;;;;;;23.32;45.88;97501.09;594304;239;64884;-66
2023/03/13 04:32:42;;;;;;;;;;;;;;;23.31;47.87;97502.18;593703;239;47501;-67
2023/03/13 04:35:20;;;;;;;;;;;;;;;23.30;47.29;97513.97;593470;239;44119;-61
2023/03/13 04:38:01;;;;;;;;;;;;;;;23.29;46.25;97509.69;586352;241;46847;-61
2023/03/13 04:40:47;;;;;;;;;;;;;;;23.28;44.89;97511.58;588711;241;37814;-61
2023/03/13 04:43:28;;;;;;;;;;;;;;;23.28;44.64;97513.46;587788;241;49597;-61
2023/03/13 04:46:01;;;;;;;;;;;;;;;23.26;46.81;97514.52;586831;241;46875;-61
2023/03/13 04:48:33;;;;;;;;;;;;;;;23.25;46.17;97523.65;586973;241;46060;-61
2023/03/13 04:51:15;;;;;;;;;;;;;;;23.25;45.81;97536.27;584154;241;48006;-61
2023/03/13 04:54:00;;;;;;;;;;;;;;;23.25;44.46;97536.27;588744;241;41297;-60
2023/03/13 04:56:29;;;;;;;;;;;;;;;23.24;46.11;97532.78;588277;241;43549;-60
2023/03/13 04:59:05;;;;;;;;;;;;;;;23.22;46.91;97529.56;586004;241;47968;-62
2023/03/13 05:01:34;;;;;;;;;;;;;;;23.21;43.99;97530.62;584330;241;48130;-60
2023/03/13 05:04:20;;;;;;;;;;;;;;;23.21;47.34;97533.30;588750;241;37540;-60
2023/03/13 05:07:02;;;;;;;;;;;;;;;23.21;48.98;97530.62;588305;241;45602;-60
2023/03/13 05:09:37;;;;;;;;;;;;;;;23.20;48.58;97542.43;588409;241;45326;-60
2023/03/13 05:12:15;;;;;;;;;;;;;;;23.20;47.23;97541.63;581889;241;47375;-60
2023/03/13 05:14:45;;;;;;;;;;;;;;;23.18;44.93;97535.73;587546;238;48013;-60
2023/03/13 05:17:32;;;;;;;;;;;;;;;23.18;47.29;97541.89;588644;241;38803;-60
2023/03/13 05:20:20;;;;;;;;;;;;;;;23.18;47.79;97549.94;587836;240;46066;-61
2023/03/13 05:22:55;;;;;;;;;;;;;;;23.17;48.50;97542.98;587470;241;48171;-61
2023/03/13 05:25:37;;;;;;;;;;;;;;;23.16;48.02;97557.47;584068;241;47659;-61
2023/03/13 05:28:06;;;;;;;;;;;;;;;23.16;48.10;97552.11;587835;238;47495;-61
2023/03/13 05:30:51;;;;;;;;;;;;;;;23.15;46.11;97547.00;588656;241;50457;-61
2023/03/13 05:33:26;;;;;;;;;;;;;;;23.13;46.30;97541.91;588309;241;49777;-61
2023/03/13 05:36:02;;;;;;;;;;;;;;;23.14;47.48;97550.77;587446;241;46069;-60
2023/03/13 05:38:34;;;;;;;;;;;;;;;23.13;43.54;97549.14;588339;241;49149;-61
2023/03/13 05:41:16;;;;;;;;;;;;;;;23.14;47.45;97542.73;588449;241;45326;-61
2023/03/13 05:43:54;;;;;;;;;;;;;;;23.13;47.74;97541.10;588460;241;44966;-60
2023/03/13 05:46:33;;;;;;;;;;;;;;;23.13;44.68;97546.47;588077;241;49157;-62
2023/03/13 05:49:02;;;;;;;;;;;;;;;23.12;48.04;97548.34;586520;241;48954;-62
2023/03/13 05:51:37;;;;;;;;;;;;;;;23.12;47.50;97556.39;588278;241;44961;-60
2023/03/13 05:54:19;;;;;;;;;;;;;;;23.11;47.59;97562.84;587836;241;48817;-61
2023/03/13 05:57:00;;;;;;;;;;;;;;;23.10;44.03;97563.09;588266;241;45108;-60
2023/03/13 05:59:36;;;;;;;;;;;;;;;23.10;45.72;97555.85;587879;241;46056;-61
2023/03/13 06:02:11;;;;;;;;;;;;;;;23.11;43.66;97559.33;585320;241;49451;-60
2023/03/13 06:04:41;;;;;;;;;;;;;;;23.12;47.94;97555.59;588734;241;44494;-61
2023/03/13 06:07:08;;;;;;;;;;;;;;;23.11;47.24;97554.80;588627;241;66016;-61
2023/03/13 06:09:36;;;;;;;;;;;;;;;23.11;45.72;97560.16;588641;241;66803;-60
2023/03/13 06:12:03;;;;;;;;;;;;;;;23.10;46.62;97558.53;588651;241;64564;-61
2023/03/13 06:14:31;;;;;;;;;;;;;;;23.11;48.15;97570.88;588644;241;65733;-60
2023/03/13 06:17:04;;;;;;;;;;;;;;;23.11;47.38;97570.88;585962;241;46918;-61
2023/03/13 06:19:32;;;;;;;;;;;;;;;23.11;47.71;97570.05;587397;241;64953;-61
2023/03/13 06:21:59;;;;;;;;;;;;;;;23.13;49.36;97570.59;587490;241;61838;-61
2023/03/13 06:24:26;;;;;;;;;;;;;;;23.12;45.89;97563.64;587384;241;64979;-61
2023/03/13 06:26:54;;;;;;;;;;;;;;;23.12;44.31;97555.59;587821;241;65672;-66
2023/03/13 06:29:23;;;;;;;;;;;;;;;23.11;46.24;97568.20;587886;241;65128;-66
2023/03/13 06:31:51;;;;;;;;;;;;;;;23.12;48.16;97572.48;588424;241;67374;-66
2023/03/13 06:34:18;;;;;;;;;;;;;;;23.12;45.07;97569.80;588591;241;67025;-66
2023/03/13 06:36:46;;;;;;;;;;;;;;;23.13;48.08;97571.39;592317;239;65047;-66
2023/03/13 06:39:13;;;;;;;;;;;;;;;23.13;46.15;97573.27;594273;239;67239;-66
2023/03/13 06:41:41;;;;;;;;;;;;;;;23.13;45.71;97576.75;594256;239;66858;-67
2023/03/13 06:44:08;;;;;;;;;;;;;;;23.12;45.70;97575.16;594316;239;65318;-61
2023/03/13 06:46:39;;;;;;;;;;;;;;;23.14;48.83;97575.70;593490;239;67226;-68
2023/03/13 06:49:06;;;;;;;;;;;;;;;23.13;46.48;97579.44;594191;239;65489;-67
2023/03/13 06:51:34;;;;;;;;;;;;;;;23.12;45.94;97583.20;594232;239;65012;-61
2023/03/13 06:54:02;;;;;;;;;;;;;;;23.13;45.61;97582.12;594093;239;67187;-60
2023/03/13 06:56:31;;;;;;;;;;;;;;;23.14;45.29;97575.70;594134;239;65073;-60
2023/03/13 06:58:58;;;;;;;;;;;;;;;23.16;46.56;97567.37;594200;239;65165;-61
2023/03/13 07:01:26;;;;;;;;;;;;;;;23.18;46.57;97568.70;594151;239;66970;-68
2023/03/13 07:03:53;;;;;;;;;;;;;;;23.18;45.20;97568.70;594252;239;67033;-60
2023/03/13 07:06:21;;;;;;;;;;;;;;;23.20;44.97;97563.08;594227;239;65025;-60
2023/03/13 07:08:48;;;;;;;;;;;;;;;23.20;44.63;97566.56;594256;239;66909;-60
2023/03/13 07:11:16;;;;;;;;;;;;;;;23.21;46.70;97557.43;598924;236;64923;-60
2023/03/13 07:13:43;;;;;;;;;;;;;;;23.20;44.13;97547.00;599576;236;63038;-60
2023/03/13 07:16:12;;;;;;;;;;;;;;;23.21;48.52;97543.23;599670;236;65352;-60
2023/03/13 07:18:43;;;;;;;;;;;;;;;23.21;46.76;97546.70;599661;236;67019;-61
2023/03/13 07:21:11;;;;;;;;;;;;;;;23.22;45.41;97540.29;599603;236;65059;-61
2023/03/13 07:23:39;;;;;;;;;;;;;;;23.23;44.34;97541.08;599700;236;65241;-61
2023/03/13 07:26:08;;;;;;;;;;;;;;;23.26;47.70;97532.49;599460;236;64979;-60
2023/03/13 07:28:35;;;;;;;;;;;;;;;23.26;46.04;97527.92;599595;236;65048;-60
2023/03/13 07:31:04;;;;;;;;;;;;;;;23.29;46.03;97525.78;599611;236;64874;-64
2023/03/13 07:33:31;;;;;;;;;;;;;;;23.30;48.62;97508.61;599441;236;67120;-61
2023/03/13 07:35:59;;;;;;;;;;;;;;;23.31;40.56;97504.86;599224;236;62924;-61
2023/03/13 07:38:28;;;;;;;;;;;;;;;23.33;45.38;97492.79;598466;237;64933;-61
2023/03/13 07:40:56;;;;;;;;;;;;;;;23.41;38.19;97488.73;598251;237;67105;-62
2023/03/13 07:43:24;;;;;;;;;;;;;;;23.42;40.71;97485.77;598385;237;64962;-59
2023/03/13 07:45:57;;;;;;;;;;;;;;;23.44;38.01;97482.82;598403;237;67080;-60
2023/03/13 07:48:25;;;;;;;;;;;;;;;23.46;39.71;97484.16;598256;236;67089;-60
2023/03/13 07:50:54;;;;;;;;;;;;;;;23.45;44.38;97485.21;598481;237;65040;-61
2023/03/13 07:53:22;;;;;;;;;;;;;;;23.45;47.53;97495.14;598378;237;67423;-61
2023/03/13 07:56:00;;;;;;;;;;;;;;;23.43;44.59;97483.88;598525;237;66910;-61
2023/03/13 07:58:29;;;;;;;;;;;;;;;23.44;44.96;97482.82;598476;237;65073;-61
2023/03/13 08:00:56;;;;;;;;;;;;;;;23.45;46.16;97487.89;598466;237;67392;-60
2023/03/13 08:03:24;;;;;;;;;;;;;;;23.45;43.58;97485.21;598477;237;67368;-60
2023/03/13 08:05:59;;;;;;;;;;;;;;;23.51;37.83;97483.30;598461;237;65150;-60
2023/03/13 08:08:26;;;;;;;;;;;;;;;23.54;40.17;97480.06;598483;237;65103;-59
2023/03/13 08:10:55;;;;;;;;;;;;;;;23.54;42.37;97482.75;598463;237;64805;-60
2023/03/13 08:13:23;;;;;;;;;;;;;;;23.54;43.19;97482.75;598394;237;64549;-60
2023/03/13 08:15:50;;;;;;;;;;;;;;;23.55;45.44;97479.01;598485;237;67268;-59
2023/03/13 08:18:18;;;;;;;;;;;;;;;23.55;43.20;97475.53;598488;237;65001;-59
2023/03/13 08:20:45;;;;;;;;;;;;;;;23.56;41.24;97469.08;598502;237;62924;-60
2023/03/13 08:23:13;;;;;;;;;;;;;;;23.59;43.01;97463.16;598490;237;66903;-60
2023/03/13 08:25:40;;;;;;;;;;;;;;;23.60;44.20;97465.57;598463;237;64975;-60
2023/03/13 08:28:09;;;;;;;;;;;;;;;23.59;44.71;97455.90;598494;237;62882;-60
2023/03/13 08:30:37;;;;;;;;;;;;;;;23.59;44.37;97461.27;598589;237;67591;-61
2023/03/13 08:33:04;;;;;;;;;;;;;;;23.59;44.58;97455.90;598403;237;64908;-60
2023/03/13 08:35:32;;;;;;;;;;;;;;;23.60;42.25;97454.02;597945;236;65052;-60
2023/03/13 08:37:59;;;;;;;;;;;;;;;23.61;44.51;97452.95;595222;238;67512;-60
2023/03/13 08:40:27;;;;;;;;;;;;;;;23.62;43.32;97447.29;595168;238;64961;-60
2023/03/13 08:42:54;;;;;;;;;;;;;;;23.63;44.83;97451.59;595245;238;63034;-61
2023/03/13 08:45:22;;;;;;;;;;;;;;;23.62;42.24;97436.56;595130;238;67289;-61
2023/03/13 08:47:50;;;;;;;;;;;;;;;23.65;43.12;97440.57;595120;238;67096;-61
2023/03/13 08:50:18;;;;;;;;;;;;;;;23.66;44.19;97432.26;595198;238;65689;-60
2023/03/13 08:52:46;;;;;;;;;;;;;;;23.68;41.80;97434.64;595178;238;65003;-60
2023/03/13 08:55:13;;;;;;;;;;;;;;;23.69;41.42;97439.75;595157;238;67108;-59
2023/03/13 08:57:41;;;;;;;;;;;;;;;23.69;43.45;97431.70;595263;238;63111;-60
2023/03/13 09:00:10;;;;;;;;;;;;;;;23.71;42.50;97434.14;595106;238;64933;-60
2023/03/13 09:02:37;;;;;;;;;;;;;;;23.73;41.37;97437.33;595171;238;66968;-59
2023/03/13 09:05:05;;;;;;;;;;;;;;;23.73;46.01;97433.84;595100;238;65043;-59
2023/03/13 09:07:32;;;;;;;;;;;;;;;23.72;45.40;97434.94;595159;238;67366;-59
2023/03/13 09:10:00;;;;;;;;;;;;;;;23.72;45.36;97424.20;595279;238;67629;-60
2023/03/13 09:12:27;;;;;;;;;;;;;;;23.72;45.64;97421.52;595082;238;65140;-59
2023/03/13 09:14:55;;;;;;;;;;;;;;;23.74;39.19;97416.69;595094;238;67304;-58
2023/03/13 09:17:22;;;;;;;;;;;;;;;23.78;42.87;97426.56;595094;238;68009;-63
2023/03/13 09:19:50;;;;;;;;;;;;;;;23.80;41.99;97432.46;595166;238;62779;-60
2023/03/13 09:22:17;;;;;;;;;;;;;;;23.79;43.92;97422.82;595179;238;65120;-61
2023/03/13 09:24:45;;;;;;;;;;;;;;;23.82;42.62;97424.14;595165;238;67070;-60
2023/03/13 09:27:12;;;;;;;;;;;;;;;23.82;43.16;97418.78;595099;238;65069;-66
2023/03/13 09:29:41;;;;;;;;;;;;;;;23.82;41.86;97424.14;595148;238;67265;-62
2023/03/13 09:32:10;;;;;;;;;;;;;;;23.82;44.25;97418.78;595195;238;67878;-59
2023/03/13 09:34:37;;;;;;;;;;;;;;;23.83;42.67;97420.37;595239;238;65066;-61
2023/03/13 09:37:05;;;;;;;;;;;;;;;23.84;38.83;97414.70;597722;237;64689;-65
2023/03/13 09:39:32;;;;;;;;;;;;;;;23.85;40.61;97407.48;598493;237;64876;-59
2023/03/13 09:42:01;;;;;;;;;;;;;;;23.88;41.00;97414.97;598492;237;62869;-59
2023/03/13 09:44:30;;;;;;;;;;;;;;;23.87;37.52;97411.48;598355;237;65192;-60
2023/03/13 09:47:03;;;;;;;;;;;;;;;23.89;42.33;97419.24;598457;237;67424;-60
2023/03/13 09:49:33;;;;;;;;;;;;;;;23.88;43.24;97406.91;598156;237;65076;-60
2023/03/13 09:52:03;;;;;;;;;;;;;;;23.87;41.86;97421.40;598435;237;64929;-59
2023/03/13 09:54:41;;;;;;;;;;;;;;;23.86;43.03;97415.23;597740;237;67141;-60
2023/03/13 09:57:19;;;;;;;;;;;;;;;23.86;44.53;97415.23;598485;237;63699;-61
2023/03/13 09:59:49;;;;;;;;;;;;;;;23.87;44.29;97410.66;598511;237;64650;-59
2023/03/13 10:02:21;;;;;;;;;;;;;;;23.86;44.47;97404.50;598160;236;66885;-61
2023/03/13 10:04:50;;;;;;;;;;;;;;;23.87;43.10;97406.12;598102;237;65082;-59
2023/03/13 10:07:19;;;;;;;;;;;;;;;23.89;41.73;97403.94;598401;237;66976;-60
2023/03/13 10:09:46;;;;;;;;;;;;;;;23.91;44.39;97406.35;598543;237;66833;-66
2023/03/13 10:12:15;;;;;;;;;;;;;;;23.89;43.39;97406.62;598455;237;65106;-67
2023/03/13 10:14:42;;;;;;;;;;;;;;;;;;598393;237;67045;-69
2023/03/13 10:17:11;;;;;;;;;;;;;;;23.91;40.49;97398.30;598568;237;64900;-67
2023/03/13 10:19:42;;;;;;;;;;;;;;;23.92;38.33;97389.16;598400;237;62956;-65
2023/03/13 10:22:19;;;;;;;;;;;;;;;23.97;37.47;97391.00;598525;237;66891;-65
2023/03/13 10:24:51;;;;;;;;;;;;;;;23.98;39.10;97381.86;598511;237;66818;-60
2023/03/13 10:27:19;;;;;;;;;;;;;;;23.98;40.06;97380.00;598376;237;65058;-60
2023/03/13 10:29:46;;;;;;;;;;;;;;;23.98;42.01;97374.62;598493;237;67346;-60
2023/03/13 10:32:15;;;;;;;;;;;;;;;23.97;40.07;97367.64;598507;237;65344;-60
2023/03/13 10:34:47;;;;;;;;;;;;;;;23.97;42.67;97362.27;598451;237;64920;-59
2023/03/13 10:37:16;;;;;;;;;;;;;;;23.99;43.67;97367.38;598442;236;64928;-61
2023/03/13 10:39:43;;;;;;;;;;;;;;;23.98;41.52;97361.20;598252;237;67107;-59
2023/03/13 10:42:12;;;;;;;;;;;;;;;24.00;42.41;97347.48;598396;237;62943;-60
2023/03/13 10:44:39;;;;;;;;;;;;;;;23.99;39.27;97345.89;598375;237;67290;-59
2023/03/13 10:47:08;;;;;;;;;;;;;;;23.98;43.42;97339.73;598436;237;67025;-60
2023/03/13 10:49:37;;;;;;;;;;;;;;;24.00;42.83;97350.97;598399;236;65124;-59
2023/03/13 10:52:07;;;;;;;;;;;;;;;24.01;41.48;97338.34;598184;236;67000;-60
2023/03/13 10:54:36;;;;;;;;;;;;;;;24.01;43.19;97336.48;598373;237;67149;-59
2023/03/13 10:57:20;;;;;;;;;;;;;;;24.01;42.73;97341.84;598335;236;65140;-59
2023/03/13 10:59:49;;;;;;;;;;;;;;;24.01;43.53;97333.80;598527;237;67549;-73
2023/03/13 11:02:35;;;;;;;;;;;;;;;24.02;43.84;97326.53;598218;237;64863;-60
2023/03/13 11:05:04;;;;;;;;;;;;;;;24.02;40.13;97321.96;598422;237;65122;-61
2023/03/13 11:07:35;;;;;;;;;;;;;;;24.03;41.60;97322.76;597810;237;46817;-61
2023/03/13 11:10:03;;;;;;;;;;;;;;;24.01;42.08;97312.31;598462;237;64916;-62
2023/03/13 11:12:34;;;;;;;;;;;;;;;24.01;41.69;97309.63;598069;236;63017;-60
2023/03/13 11:15:03;;;;;;;;;;;;;;;24.01;41.74;97298.89;598541;237;67194;-60
2023/03/13 11:17:35;;;;;;;;;;;;;;;24.02;42.57;97294.32;598422;237;67207;-60
2023/03/13 11:20:05;;;;;;;;;;;;;;;24.01;41.95;97292.70;598497;237;65008;-60
2023/03/13 11:22:34;;;;;;;;;;;;;;;24.00;42.06;97289.22;598125;237;65094;-59
2023/03/13 11:25:06;;;;;;;;;;;;;;;24.00;40.52;97283.85;597432;237;67104;-60
2023/03/13 11:27:38;;;;;;;;;;;;;;;24.00;41.37;97289.22;598538;237;63138;-60
2023/03/13 11:30:07;;;;;;;;;;;;;;;24.00;41.31;97283.85;598363;237;64909;-60
2023/03/13 11:32:42;;;;;;;;;;;;;;;24.00;42.64;97278.48;597722;237;64929;-61
2023/03/13 11:35:26;;;;;;;;;;;;;;;24.00;40.76;97275.80;598416;237;62773;-59
2023/03/13 11:37:55;;;;;;;;;;;;;;;24.00;42.48;97273.11;597288;237;67214;-59
2023/03/13 11:40:34;;;;;;;;;;;;;;;23.99;42.35;97268.84;598432;237;66858;-59
2023/03/13 11:43:12;;;;;;;;;;;;;;;23.99;41.46;97263.47;586241;241;64934;-60
2023/03/13 11:45:57;;;;;;;;;;;;;;;24.00;42.07;97261.58;597756;237;67311;-58
2023/03/13 11:48:39;;;;;;;;;;;;;;;23.99;41.51;97251.94;598518;237;65390;-59
2023/03/13 11:51:16;;;;;;;;;;;;;;;23.99;44.08;97244.68;598405;237;62955;-60
2023/03/13 11:53:50;;;;;;;;;;;;;;;23.98;41.54;97245.78;598429;236;67106;-59
2023/03/13 11:56:20;;;;;;;;;;;;;;;23.98;41.47;97237.72;598249;237;67088;-60
2023/03/13 11:59:02;;;;;;;;;;;;;;;24.00;41.92;97248.16;598465;237;66059;-60
2023/03/13 12:01:38;;;;;;;;;;;;;;;23.99;42.15;97239.31;598459;237;48321;-60
2023/03/13 12:04:24;;;;;;;;;;;;;;;23.97;42.84;97244.16;598484;236;48664;-59
2023/03/13 12:06:54;;;;;;;;;;;;;;;23.98;41.71;97234.22;598408;237;63643;-60
2023/03/13 12:09:31;;;;;;;;;;;;;;;23.97;43.17;97233.42;598481;237;66995;-59
2023/03/13 12:12:07;;;;;;;;;;;;;;;23.97;40.96;97238.00;598452;236;64939;-60
2023/03/13 12:14:39;;;;;;;;;;;;;;;23.97;41.94;97238.79;598102;237;62942;-59
2023/03/13 12:17:08;;;;;;;;;;;;;;;23.99;41.24;97227.78;598462;237;64874;-63
2023/03/13 12:19:42;;;;;;;;;;;;;;;23.99;44.38;97225.09;598344;237;67144;-61
2023/03/13 12:22:16;;;;;;;;;;;;;;;23.97;42.42;97228.05;598268;237;64986;-61
2023/03/13 12:24:57;;;;;;;;;;;;;;;23.99;43.02;97222.41;598385;237;67255;-62
2023/03/13 12:27:31;;;;;;;;;;;;;;;23.98;42.01;97218.94;598206;237;67200;-66
2023/03/13 12:30:16;;;;;;;;;;;;;;;24.00;42.13;97207.89;598481;237;65241;-67
2023/03/13 12:32:45;;;;;;;;;;;;;;;23.98;43.29;97213.56;598473;237;67215;-68
2023/03/13 12:35:14;;;;;;;;;;;;;;;23.96;42.60;97215.73;598226;237;65055;-61
2023/03/13 12:37:52;;;;;;;;;;;;;;;23.99;42.95;97217.05;598476;237;62934;-63
2023/03/13 12:40:28;;;;;;;;;;;;;;;23.97;42.37;97205.78;598486;237;65044;-65
2023/03/13 12:42:57;;;;;;;;;;;;;;;23.93;44.27;97209.05;598352;236;71485;-62
2023/03/13 12:45:28;;;;;;;;;;;;;;;23.95;37.04;97203.37;598409;237;62659;-61
2023/03/13 12:47:59;;;;;;;;;;;;;;;23.98;42.64;97202.83;598455;237;65020;-60
2023/03/13 12:50:32;;;;;;;;;;;;;;;23.97;41.04;97201.20;598422;237;67081;-61
2023/03/13 12:53:15;;;;;;;;;;;;;;;23.97;39.84;97206.58;598461;237;65064;-60
2023/03/13 12:55:43;;;;;;;;;;;;;;;23.98;41.63;97202.83;598272;237;67963;-61
2023/03/13 12:58:13;;;;;;;;;;;;;;;24.00;39.06;97194.47;598494;237;66680;-60
2023/03/13 13:00:45;;;;;;;;;;;;;;;23.98;41.70;97199.31;591111;237;46743;-61
2023/03/13 13:03:35;;;;;;;;;;;;;;;23.98;43.58;97196.63;598429;237;65080;-61
2023/03/13 13:06:15;;;;;;;;;;;;;;;23.95;42.78;97198.00;598396;236;71754;-60